createdAt,value
2023-01-25T00:02:08.474Z,102155.41
2023-01-25T00:04:35.451Z,102151.06
2023-01-25T00:07:02.427Z,102151.28
2023-01-25T00:09:29.325Z,102156.19
2023-01-25T00:11:58.237Z,102153.53
2023-01-25T00:14:25.288Z,102150.84
2023-01-25T00:16:52.247Z,102149.84
2023-01-25T00:19:19.490Z,102141.97
2023-01-25T00:21:46.508Z,102142.88
2023-01-25T00:24:14.678Z,102133.63
2023-01-25T00:26:44.179Z,102137.63
2023-01-25T00:29:14.668Z,102125.63
2023-01-25T00:31:44.973Z,102127.97
2023-01-25T00:34:24.591Z,102124.22
2023-01-25T00:37:11.529Z,102122.31
2023-01-25T00:39:40.439Z,102114.63
2023-01-25T00:42:14.890Z,102115.19
2023-01-25T00:44:44.945Z,102103.19
2023-01-25T00:47:12.746Z,102093.75
2023-01-25T00:49:40.940Z,102098.69
2023-01-25T00:52:08.224Z,102096.13
2023-01-25T00:54:35.506Z,102092.53
2023-01-25T00:57:02.965Z,102088.78
2023-01-25T00:59:30.106Z,102068.13
2023-01-25T01:01:57.377Z,102080.03
2023-01-25T01:04:25.363Z,102084.34
2023-01-25T01:06:53.933Z,102078.44
2023-01-25T01:09:22.302Z,102074.13
2023-01-25T01:11:51.845Z,102083.34
2023-01-25T01:14:19.270Z,102073.56
2023-01-25T01:16:46.409Z,102072.34
2023-01-25T01:19:14.022Z,102073.13
2023-01-25T01:21:40.922Z,102073.13
2023-01-25T01:24:10.263Z,102066.50
2023-01-25T01:26:37.428Z,102062.25
2023-01-25T01:29:04.788Z,102056.91
2023-01-25T01:31:32.003Z,102052.50
2023-01-25T01:34:17.889Z,102056.59
2023-01-25T01:36:45.264Z,102052.06
2023-01-25T01:39:12.138Z,102049.38
2023-01-25T01:41:39.229Z,102055.38
2023-01-25T01:44:20.553Z,102051.59
2023-01-25T01:46:55.230Z,102052.19
2023-01-25T01:49:26.371Z,102060.16
2023-01-25T01:52:04.409Z,102047.09
2023-01-25T01:54:59.336Z,102055.22
2023-01-25T01:57:36.762Z,102049.09
2023-01-25T02:00:33.090Z,102049.22
2023-01-25T02:03:01.756Z,102041.66
2023-01-25T02:05:51.443Z,102027.97
2023-01-25T02:08:19.028Z,102031.63
2023-01-25T02:10:46.605Z,102032.41
2023-01-25T02:13:13.729Z,102033.09
2023-01-25T02:15:50.249Z,102039.09
2023-01-25T02:18:18.384Z,102039.88
2023-01-25T02:20:47.426Z,102037.19
2023-01-25T02:23:48.241Z,102031.31
2023-01-25T02:26:15.925Z,102025.75
2023-01-25T02:28:59.608Z,102029.78
2023-01-25T02:31:26.862Z,102023.78
2023-01-25T02:33:54.281Z,102011.56
2023-01-25T02:36:30.209Z,102023.34
2023-01-25T02:39:04.866Z,102017.56
2023-01-25T02:41:35.045Z,102007.25
2023-01-25T02:44:05.490Z,102009.56
2023-01-25T02:46:36.217Z,102011.13
2023-01-25T02:49:04.666Z,102004.25
2023-01-25T02:51:34.374Z,102009.56
2023-01-25T02:54:02.529Z,102009.56
2023-01-25T02:56:29.805Z,102004.44
2023-01-25T02:58:56.965Z,101996.78
2023-01-25T03:01:24.268Z,101994.78
2023-01-25T03:03:51.383Z,101997.94
2023-01-25T03:06:19.499Z,101997.03
2023-01-25T03:08:47.367Z,101994.81
2023-01-25T03:11:15.064Z,101998.84
2023-01-25T03:13:43.946Z,102000.38
2023-01-25T03:16:12.737Z,101997.16
2023-01-25T03:18:42.029Z,101998.47
2023-01-25T03:21:12.135Z,101996.25
2023-01-25T03:23:39.932Z,101978.47
2023-01-25T03:26:19.878Z,101989.38
2023-01-25T03:29:07.096Z,101981.72
2023-01-25T03:31:37.789Z,101974.69
2023-01-25T03:34:05.000Z,101965.38
2023-01-25T03:36:36.339Z,101965.91
2023-01-25T03:39:03.791Z,101972.50
2023-01-25T03:41:30.666Z,101966.28
2023-01-25T03:43:59.815Z,101966.09
2023-01-25T03:46:27.800Z,101957.41
2023-01-25T03:48:55.009Z,101956.97
2023-01-25T03:51:22.214Z,101959.97
2023-01-25T03:53:49.172Z,101940.34
2023-01-25T03:56:20.374Z,101930.13
2023-01-25T03:59:04.092Z,101945.22
2023-01-25T04:01:32.244Z,101949.44
2023-01-25T04:03:59.885Z,101934.00
2023-01-25T04:06:28.187Z,101938.00
2023-01-25T04:08:55.820Z,101938.56
2023-01-25T04:11:25.672Z,101945.31
2023-01-25T04:13:52.732Z,101929.25
2023-01-25T04:16:21.705Z,101930.13
2023-01-25T04:19:14.466Z,101920.56
2023-01-25T04:21:42.026Z,101916.25
2023-01-25T04:24:09.139Z,101910.38
2023-01-25T04:26:39.349Z,101916.34
2023-01-25T04:29:06.890Z,101920.69
2023-01-25T04:31:34.541Z,101919.03
2023-01-25T04:34:01.712Z,101909.81
2023-01-25T04:36:28.967Z,101913.16
2023-01-25T04:38:56.208Z,101904.47
2023-01-25T04:41:26.991Z,101903.72
2023-01-25T04:43:55.023Z,101906.72
2023-01-25T04:46:22.648Z,101895.47
2023-01-25T04:48:49.785Z,101894.59
2023-01-25T04:51:18.029Z,101901.59
2023-01-25T04:53:45.245Z,101898.03
2023-01-25T04:56:12.606Z,101894.81
2023-01-25T04:58:53.056Z,101892.47
2023-01-25T05:01:20.267Z,101881.03
2023-01-25T05:03:47.268Z,101873.47
2023-01-25T05:06:30.367Z,101872.69
2023-01-25T05:08:57.780Z,101869.16
2023-01-25T05:11:25.348Z,101870.13
2023-01-25T05:14:01.515Z,101869.50
2023-01-25T05:16:32.325Z,101864.81
2023-01-25T05:19:00.139Z,101870.88
2023-01-25T05:22:00.985Z,101876.22
2023-01-25T05:24:34.010Z,101869.75
2023-01-25T05:27:04.944Z,101865.63
2023-01-25T05:29:52.126Z,101864.19
2023-01-25T05:32:23.194Z,101866.16
2023-01-25T05:34:50.606Z,101863.72
2023-01-25T05:37:21.121Z,101870.91
2023-01-25T05:39:54.532Z,101874.56
2023-01-25T05:42:21.647Z,101880.34
2023-01-25T05:44:48.665Z,101880.25
2023-01-25T05:47:17.939Z,101873.25
2023-01-25T05:49:45.241Z,101873.47
2023-01-25T05:52:19.697Z,101861.69
2023-01-25T05:54:46.847Z,101860.31
2023-01-25T05:57:16.088Z,101851.00
2023-01-25T05:59:43.276Z,101854.75
2023-01-25T06:02:12.493Z,101859.16
2023-01-25T06:04:40.985Z,101858.41
2023-01-25T06:07:09.784Z,101854.97
2023-01-25T06:09:37.407Z,101860.97
2023-01-25T06:12:06.529Z,101850.03
2023-01-25T06:14:33.875Z,101859.94
2023-01-25T06:17:02.747Z,101860.81
2023-01-25T06:19:48.045Z,101839.41
2023-01-25T06:22:35.899Z,101851.22
2023-01-25T06:25:03.001Z,101858.97
2023-01-25T06:27:29.994Z,101849.84
2023-01-25T06:29:56.997Z,101848.94
2023-01-25T06:32:26.098Z,101853.06
2023-01-25T06:34:53.355Z,101853.06
2023-01-25T06:37:23.082Z,101845.97
2023-01-25T06:39:50.410Z,101838.53
2023-01-25T06:42:17.328Z,101837.94
2023-01-25T06:44:44.307Z,101839.63
2023-01-25T06:47:12.550Z,101840.28
2023-01-25T06:49:39.547Z,101833.31
2023-01-25T06:52:06.443Z,101833.31
2023-01-25T06:54:34.210Z,101825.66
2023-01-25T06:57:01.176Z,101826.63
2023-01-25T06:59:28.235Z,101821.81
2023-01-25T07:01:55.338Z,101822.81
2023-01-25T07:04:22.437Z,101816.63
2023-01-25T07:06:49.486Z,101824.06
2023-01-25T07:09:16.485Z,101817.75
2023-01-25T07:11:43.574Z,101817.75
2023-01-25T07:14:10.550Z,101818.56
2023-01-25T07:16:38.621Z,101821.44
2023-01-25T07:19:07.352Z,101819.06
2023-01-25T07:21:34.733Z,101816.72
2023-01-25T07:24:03.313Z,101814.47
2023-01-25T07:26:30.673Z,101818.09
2023-01-25T07:28:59.215Z,101817.44
2023-01-25T07:31:26.994Z,101812.63
2023-01-25T07:33:55.765Z,101813.50
2023-01-25T07:36:23.407Z,101805.53
2023-01-25T07:38:53.618Z,101816.06
2023-01-25T07:41:21.084Z,101814.72
2023-01-25T07:43:48.782Z,101810.47
2023-01-25T07:46:28.076Z,101807.03
2023-01-25T07:48:55.135Z,101810.16
2023-01-25T07:51:23.406Z,101811.94
2023-01-25T07:53:54.172Z,101804.34
2023-01-25T07:56:23.374Z,101808.09
2023-01-25T07:58:52.703Z,101806.16
2023-01-25T08:01:21.513Z,101807.22
2023-01-25T08:03:49.527Z,101809.28
2023-01-25T08:06:17.157Z,101800.94
2023-01-25T08:08:49.712Z,101803.91
2023-01-25T08:11:20.394Z,101795.66
2023-01-25T08:13:49.867Z,101793.09
2023-01-25T08:16:18.544Z,101792.09
2023-01-25T08:18:50.044Z,101788.16
2023-01-25T08:21:17.673Z,101787.09
2023-01-25T08:23:45.097Z,101774.38
2023-01-25T08:26:13.970Z,101773.78
2023-01-25T08:28:41.192Z,101769.78
2023-01-25T08:31:13.089Z,101778.50
2023-01-25T08:33:40.851Z,101777.84
2023-01-25T08:36:09.632Z,101778.63
2023-01-25T08:38:37.558Z,101774.38
2023-01-25T08:41:08.343Z,101788.06
2023-01-25T08:43:35.763Z,101774.00
2023-01-25T08:46:03.173Z,101768.38
2023-01-25T08:48:30.369Z,101770.94
2023-01-25T08:50:58.186Z,101770.81
2023-01-25T08:53:25.221Z,101779.78
2023-01-25T08:55:52.202Z,101773.19
2023-01-25T08:58:21.975Z,101770.91
2023-01-25T09:00:49.637Z,101771.38
2023-01-25T09:03:18.371Z,101770.88
2023-01-25T09:05:45.410Z,101767.44
2023-01-25T09:08:12.730Z,101763.13
2023-01-25T09:10:39.803Z,101757.81
2023-01-25T09:13:08.635Z,101763.16
2023-01-25T09:15:36.006Z,101762.19
2023-01-25T09:18:03.330Z,101761.97
2023-01-25T09:20:34.233Z,101763.94
2023-01-25T09:23:01.976Z,101758.44
2023-01-25T09:25:28.962Z,101752.53
2023-01-25T09:27:55.962Z,101753.13
2023-01-25T09:30:33.593Z,101748.19
2023-01-25T09:33:05.990Z,101757.25
2023-01-25T09:35:33.970Z,101742.38
2023-01-25T09:38:01.027Z,101735.38
2023-01-25T09:40:34.348Z,101744.69
2023-01-25T09:43:15.396Z,101734.75
2023-01-25T09:45:42.748Z,101731.66
2023-01-25T09:48:17.243Z,101721.50
2023-01-25T09:51:21.463Z,101720.31
2023-01-25T09:53:53.672Z,101722.88
2023-01-25T09:56:23.894Z,101706.72
2023-01-25T09:58:53.679Z,101705.69
2023-01-25T10:01:38.769Z,101688.09
2023-01-25T10:04:21.478Z,101688.03
2023-01-25T10:07:01.221Z,101680.44
2023-01-25T10:09:40.056Z,101677.41
2023-01-25T10:12:35.845Z,101663.72
2023-01-25T10:15:03.317Z,101654.72
2023-01-25T10:17:37.859Z,101658.09
2023-01-25T10:20:28.727Z,101654.56
2023-01-25T10:23:17.811Z,101647.03
2023-01-25T10:25:47.206Z,101637.31
2023-01-25T10:28:24.732Z,101639.44
2023-01-25T10:31:17.022Z,101637.06
2023-01-25T10:33:45.883Z,101634.56
2023-01-25T10:36:23.303Z,101637.25
2023-01-25T10:38:50.422Z,101623.28
2023-01-25T10:41:25.121Z,101625.22
2023-01-25T10:44:12.071Z,101616.38
2023-01-25T10:46:41.303Z,101609.94
2023-01-25T10:49:30.123Z,101609.50
2023-01-25T10:51:57.578Z,101601.44
2023-01-25T10:54:24.863Z,101600.22
2023-01-25T10:56:52.685Z,101592.81
2023-01-25T10:59:25.279Z,101585.84
2023-01-25T11:01:52.480Z,101571.28
2023-01-25T11:04:31.563Z,101579.38
2023-01-25T11:07:00.002Z,101569.25
2023-01-25T11:09:29.844Z,101568.09
2023-01-25T11:12:17.879Z,101571.88
2023-01-25T11:14:45.461Z,101571.63
2023-01-25T11:17:31.953Z,101571.09
2023-01-25T11:20:21.240Z,101555.72
2023-01-25T11:22:56.089Z,101548.81
2023-01-25T11:25:32.307Z,101548.09
2023-01-25T11:28:17.218Z,101540.59
2023-01-25T11:30:45.455Z,101541.91
2023-01-25T11:33:13.443Z,101535.16
2023-01-25T11:35:53.841Z,101532.44
2023-01-25T11:38:23.321Z,101517.22
2023-01-25T11:40:58.082Z,101516.28
2023-01-25T11:43:51.646Z,101508.06
2023-01-25T11:46:23.265Z,101498.91
2023-01-25T11:49:09.064Z,101495.13
2023-01-25T11:51:44.192Z,101500.16
2023-01-25T11:54:29.345Z,101497.69
2023-01-25T11:57:19.367Z,101485.06
2023-01-25T11:59:46.301Z,101467.28
2023-01-25T12:02:35.097Z,101467.91
2023-01-25T12:05:47.182Z,101465.19
2023-01-25T12:08:20.052Z,101459.25
2023-01-25T12:10:47.002Z,101456.97
2023-01-25T12:13:30.288Z,101454.66
2023-01-25T12:16:16.079Z,101439.97
2023-01-25T12:18:46.084Z,101445.75
2023-01-25T12:21:31.956Z,101444.69
2023-01-25T12:24:20.740Z,101438.63
2023-01-25T12:27:18.586Z,101428.53
2023-01-25T12:29:50.327Z,101420.91
2023-01-25T12:32:32.546Z,101420.53
2023-01-25T12:35:18.283Z,101410.00
2023-01-25T12:37:47.364Z,101406.38
2023-01-25T12:40:18.528Z,101396.00
2023-01-25T12:42:52.762Z,101403.41
2023-01-25T12:45:23.641Z,101399.97
2023-01-25T12:48:15.643Z,101392.28
2023-01-25T12:50:46.857Z,101383.63
2023-01-25T12:53:20.408Z,101387.88
2023-01-25T12:55:48.846Z,101371.81
2023-01-25T12:58:43.603Z,101378.75
2023-01-25T13:01:26.883Z,101375.25
2023-01-25T13:04:21.262Z,101381.94
2023-01-25T13:06:55.926Z,101374.19
2023-01-25T13:09:40.191Z,101375.94
2023-01-25T13:12:11.555Z,101380.19
2023-01-25T13:14:40.361Z,101369.06
2023-01-25T13:17:36.556Z,101365.63
2023-01-25T13:20:42.083Z,101361.63
2023-01-25T13:23:31.749Z,101357.63
2023-01-25T13:26:29.485Z,101361.94
2023-01-25T13:29:01.222Z,101348.19
2023-01-25T13:31:51.682Z,101348.44
2023-01-25T13:34:40.504Z,101338.88
2023-01-25T13:37:21.441Z,101337.94
2023-01-25T13:39:55.062Z,101335.19
2023-01-25T13:42:27.095Z,101340.25
2023-01-25T13:44:56.420Z,101345.44
2023-01-25T13:47:26.730Z,101339.44
2023-01-25T13:50:00.236Z,101331.69
2023-01-25T13:52:28.427Z,101329.84
2023-01-25T13:54:57.541Z,101325.38
2023-01-25T13:57:30.261Z,101326.00
2023-01-25T14:00:10.728Z,101323.13
2023-01-25T14:02:39.706Z,101324.00
2023-01-25T14:05:08.126Z,101319.66
2023-01-25T14:07:37.133Z,101312.69
2023-01-25T14:10:10.864Z,101308.31
2023-01-25T14:12:40.566Z,101315.00
2023-01-25T14:15:18.002Z,101306.44
2023-01-25T14:17:45.302Z,101308.13
2023-01-25T14:20:24.611Z,101307.06
2023-01-25T14:22:51.962Z,101301.00
2023-01-25T14:25:22.662Z,101300.91
2023-01-25T14:28:03.075Z,101299.78
2023-01-25T14:30:34.946Z,101297.03
2023-01-25T14:33:02.575Z,101292.91
2023-01-25T14:35:53.812Z,101291.59
2023-01-25T14:38:28.470Z,101287.03
2023-01-25T14:41:18.300Z,101286.69
2023-01-25T14:43:54.122Z,101281.25
2023-01-25T14:46:29.449Z,101272.34
2023-01-25T14:49:27.924Z,101277.13
2023-01-25T14:52:14.615Z,101272.66
2023-01-25T14:54:52.368Z,101270.69
2023-01-25T14:57:38.670Z,101266.13
2023-01-25T15:00:13.704Z,101260.81
2023-01-25T15:02:49.746Z,101270.72
2023-01-25T15:05:27.544Z,101263.69
2023-01-25T15:08:16.664Z,101266.88
2023-01-25T15:11:22.092Z,101269.09
2023-01-25T15:13:49.177Z,101269.69
2023-01-25T15:16:19.149Z,101258.25
2023-01-25T15:18:54.036Z,101258.06
2023-01-25T15:21:31.577Z,101256.91
2023-01-25T15:24:05.063Z,101254.09
2023-01-25T15:26:34.843Z,101248.75
2023-01-25T15:29:07.948Z,101247.66
2023-01-25T15:31:37.425Z,101245.72
2023-01-25T15:34:04.638Z,101244.75
2023-01-25T15:36:33.140Z,101256.47
2023-01-25T15:39:00.346Z,101257.00
2023-01-25T15:41:27.485Z,101253.28
2023-01-25T15:43:54.583Z,101255.56
2023-01-25T15:46:27.665Z,101260.41
2023-01-25T15:48:55.029Z,101259.44
2023-01-25T15:51:22.296Z,101256.72
2023-01-25T15:53:49.604Z,101254.84
2023-01-25T15:56:22.241Z,101258.88
2023-01-25T15:58:52.009Z,101251.06
2023-01-25T16:01:25.262Z,101250.00
2023-01-25T16:03:56.469Z,101246.28
2023-01-25T16:06:46.493Z,101240.13
2023-01-25T16:09:16.712Z,101242.41
2023-01-25T16:11:46.376Z,101240.53
2023-01-25T16:14:15.388Z,101236.06
2023-01-25T16:16:49.568Z,101225.56
2023-01-25T16:19:19.649Z,101216.75
2023-01-25T16:21:46.805Z,101213.19
2023-01-25T16:24:14.226Z,101213.84
2023-01-25T16:26:46.333Z,101215.22
2023-01-25T16:29:14.069Z,101211.69
2023-01-25T16:31:41.296Z,101206.50
2023-01-25T16:34:08.563Z,101202.09
2023-01-25T16:36:36.282Z,101199.44
2023-01-25T16:39:13.702Z,101202.69
2023-01-25T16:41:41.051Z,101206.81
2023-01-25T16:44:08.182Z,101196.59
2023-01-25T16:46:35.745Z,101189.84
2023-01-25T16:49:09.867Z,101181.41
2023-01-25T16:51:37.813Z,101182.97
2023-01-25T16:54:04.902Z,101179.44
2023-01-25T16:56:33.481Z,101179.38
2023-01-25T16:59:02.727Z,101176.69
2023-01-25T17:01:30.302Z,101175.81
2023-01-25T17:03:57.499Z,101177.31
2023-01-25T17:06:30.404Z,101176.31
2023-01-25T17:09:02.155Z,101181.94
2023-01-25T17:11:32.395Z,101180.09
2023-01-25T17:14:00.463Z,101182.66
2023-01-25T17:16:29.949Z,101178.34
2023-01-25T17:19:02.444Z,101179.09
2023-01-25T17:21:29.831Z,101173.53
2023-01-25T17:23:58.401Z,101180.91
2023-01-25T17:26:26.240Z,101179.75
2023-01-25T17:28:55.655Z,101180.53
2023-01-25T17:31:26.553Z,101167.59
2023-01-25T17:33:54.552Z,101168.28
2023-01-25T17:36:22.003Z,101168.00
2023-01-25T17:38:49.400Z,101166.03
2023-01-25T17:41:17.525Z,101170.88
2023-01-25T17:43:44.642Z,101169.00
2023-01-25T17:46:20.714Z,101160.38
2023-01-25T17:48:48.514Z,101155.47
2023-01-25T17:51:15.726Z,101159.25
2023-01-25T17:53:42.902Z,101151.81
2023-01-25T17:56:11.934Z,101148.84
2023-01-25T17:58:40.383Z,101145.22
2023-01-25T18:01:21.998Z,101146.75
2023-01-25T18:03:50.495Z,101140.44
2023-01-25T18:06:20.367Z,101133.97
2023-01-25T18:08:52.003Z,101142.94
2023-01-25T18:11:24.932Z,101136.78
2023-01-25T18:13:54.871Z,101141.38
2023-01-25T18:16:22.952Z,101139.81
2023-01-25T18:18:52.130Z,101129.78
2023-01-25T18:21:24.488Z,101133.56
2023-01-25T18:23:53.961Z,101136.31
2023-01-25T18:26:33.466Z,101121.88
2023-01-25T18:29:29.301Z,101133.22
2023-01-25T18:31:56.728Z,101121.41
2023-01-25T18:34:25.410Z,101110.44
2023-01-25T18:36:54.047Z,101109.91
2023-01-25T18:39:21.479Z,101106.66
2023-01-25T18:41:50.591Z,101097.50
2023-01-25T18:44:22.525Z,101094.22
2023-01-25T18:46:54.110Z,101090.44
2023-01-25T18:49:23.293Z,101093.25
2023-01-25T18:52:05.226Z,101092.47
2023-01-25T18:54:35.783Z,101091.66
2023-01-25T18:57:03.687Z,101087.63
2023-01-25T18:59:32.540Z,101083.47
2023-01-25T19:02:00.523Z,101077.81
2023-01-25T19:04:28.376Z,101077.09
2023-01-25T19:07:02.607Z,101070.34
2023-01-25T19:09:32.184Z,101071.84
2023-01-25T19:12:00.158Z,101081.97
2023-01-25T19:14:29.859Z,101072.44
2023-01-25T19:16:58.531Z,101076.06
2023-01-25T19:19:31.805Z,101066.72
2023-01-25T19:21:59.633Z,101058.97
2023-01-25T19:24:27.247Z,101061.16
2023-01-25T19:26:57.202Z,101065.50
2023-01-25T19:29:24.096Z,101061.34
2023-01-25T19:31:51.046Z,101063.19
2023-01-25T19:34:18.276Z,101059.94
2023-01-25T19:36:54.026Z,101059.31
2023-01-25T19:39:21.363Z,101056.91
2023-01-25T19:41:48.662Z,101057.16
2023-01-25T19:44:15.779Z,101058.66
2023-01-25T19:46:43.210Z,101052.69
2023-01-25T19:49:13.308Z,101050.13
2023-01-25T19:51:42.807Z,101042.47
2023-01-25T19:54:17.417Z,101056.91
2023-01-25T19:56:46.917Z,101052.78
2023-01-25T19:59:22.664Z,101051.25
2023-01-25T20:01:51.172Z,101035.22
2023-01-25T20:04:22.331Z,101042.91
2023-01-25T20:06:50.746Z,101039.63
2023-01-25T20:09:25.405Z,101036.19
2023-01-25T20:11:55.641Z,101042.28
2023-01-25T20:14:23.835Z,101041.72
2023-01-25T20:16:54.193Z,101039.25
2023-01-25T20:19:21.427Z,101027.34
2023-01-25T20:21:50.151Z,101024.59
2023-01-25T20:24:18.357Z,101019.50
2023-01-25T20:26:46.601Z,101018.81
2023-01-25T20:29:13.855Z,101015.25
2023-01-25T20:31:43.476Z,101016.00
2023-01-25T20:34:12.262Z,101015.13
2023-01-25T20:36:39.434Z,101010.72
2023-01-25T20:39:08.467Z,101018.16
2023-01-25T20:41:35.907Z,101019.78
2023-01-25T20:44:11.374Z,101020.53
2023-01-25T20:46:40.356Z,101018.78
2023-01-25T20:49:11.259Z,101017.91
2023-01-25T20:51:38.555Z,101019.72
2023-01-25T20:54:06.488Z,101020.72
2023-01-25T20:56:33.949Z,101011.19
2023-01-25T20:59:01.702Z,101006.94
2023-01-25T21:01:31.021Z,100992.50
2023-01-25T21:03:58.981Z,100996.91
2023-01-25T21:06:27.779Z,100993.53
2023-01-25T21:08:55.249Z,100987.63
2023-01-25T21:11:23.526Z,100987.63
2023-01-25T21:13:50.763Z,100979.81
2023-01-25T21:16:21.791Z,100984.13
2023-01-25T21:18:54.690Z,100986.75
2023-01-25T21:21:29.215Z,100990.13
2023-01-25T21:24:00.121Z,100984.03
2023-01-25T21:26:30.055Z,100982.19
2023-01-25T21:28:58.859Z,100982.03
2023-01-25T21:31:28.203Z,100980.44
2023-01-25T21:33:56.170Z,100981.47
2023-01-25T21:36:23.382Z,100982.53
2023-01-25T21:38:51.938Z,100982.69
2023-01-25T21:41:21.072Z,100979.97
2023-01-25T21:44:07.536Z,100979.72
2023-01-25T21:46:35.657Z,100972.06
2023-01-25T21:49:23.580Z,100970.38
2023-01-25T21:51:52.605Z,100960.16
2023-01-25T21:54:21.687Z,100960.09
2023-01-25T21:56:50.036Z,100963.50
2023-01-25T21:59:17.259Z,100963.59
2023-01-25T22:01:44.545Z,100954.28
2023-01-25T22:04:13.252Z,100961.84
2023-01-25T22:06:40.653Z,100963.50
2023-01-25T22:09:08.524Z,100964.31
2023-01-25T22:11:36.232Z,100960.88
2023-01-25T22:14:03.269Z,100960.09
2023-01-25T22:16:30.754Z,100959.22
2023-01-25T22:18:59.997Z,100952.34
2023-01-25T22:21:30.935Z,100953.69
2023-01-25T22:23:59.277Z,100946.72
2023-01-25T22:26:30.907Z,100951.03
2023-01-25T22:28:59.414Z,100951.38
2023-01-25T22:31:28.830Z,100945.69
2023-01-25T22:33:57.027Z,100944.25
2023-01-25T22:36:25.685Z,100943.63
2023-01-25T22:38:53.050Z,100943.09
2023-01-25T22:41:22.496Z,100937.09
2023-01-25T22:43:49.701Z,100932.84
2023-01-25T22:46:19.736Z,100919.94
2023-01-25T22:48:47.252Z,100917.28
2023-01-25T22:51:19.757Z,100923.38
2023-01-25T22:53:46.945Z,100931.91
2023-01-25T22:56:22.727Z,100924.38
2023-01-25T22:58:50.321Z,100914.16
2023-01-25T23:01:22.998Z,100915.03
2023-01-25T23:03:51.064Z,100910.09
2023-01-25T23:06:29.561Z,100908.50
2023-01-25T23:08:59.916Z,100896.63
2023-01-25T23:11:41.453Z,100897.31
2023-01-25T23:14:29.936Z,100897.38
2023-01-25T23:17:16.946Z,100890.78
2023-01-25T23:19:44.127Z,100878.94
2023-01-25T23:22:11.122Z,100878.16
2023-01-25T23:24:38.175Z,100878.78
2023-01-25T23:27:05.142Z,100886.16
2023-01-25T23:29:32.422Z,100883.50
2023-01-25T23:31:59.566Z,100877.63
2023-01-25T23:34:26.665Z,100866.47
2023-01-25T23:36:53.552Z,100868.91
2023-01-25T23:39:20.463Z,100869.47
2023-01-25T23:41:48.190Z,100860.69
2023-01-25T23:44:15.267Z,100861.63
2023-01-25T23:46:42.272Z,100858.13
2023-01-25T23:49:09.384Z,100862.19
2023-01-25T23:51:36.390Z,100868.03
2023-01-25T23:54:03.450Z,100857.81
2023-01-25T23:56:30.487Z,100859.75
2023-01-25T23:58:57.634Z,100856.44
